sensor_id;sensor_type;location;lat;lon;timestamp;pressure;altitude;pressure_sealevel;temperature;humidity
12349;BME280;5974;42.710;27.258;2023-03-04T00:02:05;100401.66;;;6.30;100.00
12349;BME280;5974;42.710;27.258;2023-03-04T00:04:32;100406.00;;;6.71;100.00
12349;BME280;5974;42.710;27.258;2023-03-04T00:06:59;100415.75;;;7.02;100.00
12349;BME280;5974;42.710;27.258;2023-03-04T00:09:26;100411.75;;;6.86;100.00
12349;BME280;5974;42.710;27.258;2023-03-04T00:11:53;100403.22;;;6.81;100.00
12349;BME280;5974;42.710;27.258;2023-03-04T00:14:20;100405.06;;;6.76;100.00
12349;BME280;5974;42.710;27.258;2023-03-04T00:16:48;100408.47;;;7.18;100.00
12349;BME280;5974;42.710;27.258;2023-03-04T00:19:15;100403.28;;;6.77;100.00
12349;BME280;5974;42.710;27.258;2023-03-04T00:21:42;100401.91;;;6.61;100.00
12349;BME280;5974;42.710;27.258;2023-03-04T00:24:09;100403.41;;;7.14;100.00
12349;BME280;5974;42.710;27.258;2023-03-04T00:26:36;100393.34;;;6.97;100.00
12349;BME280;5974;42.710;27.258;2023-03-04T00:29:02;100386.53;;;7.30;100.00
12349;BME280;5974;42.710;27.258;2023-03-04T00:31:29;100394.75;;;7.12;100.00
12349;BME280;5974;42.710;27.258;2023-03-04T00:33:57;100395.47;;;7.20;100.00
12349;BME280;5974;42.710;27.258;2023-03-04T00:36:24;100388.13;;;6.57;100.00
12349;BME280;5974;42.710;27.258;2023-03-04T00:38:51;100388.06;;;7.38;100.00
12349;BME280;5974;42.710;27.258;2023-03-04T00:41:18;100384.94;;;7.61;100.00
12349;BME280;5974;42.710;27.258;2023-03-04T00:43:45;100372.50;;;7.37;100.00
12349;BME280;5974;42.710;27.258;2023-03-04T00:46:11;100362.03;;;7.01;100.00
12349;BME280;5974;42.710;27.258;2023-03-04T00:48:38;100365.84;;;6.87;100.00
12349;BME280;5974;42.710;27.258;2023-03-04T00:51:06;100357.84;;;6.56;100.00
12349;BME280;5974;42.710;27.258;2023-03-04T00:53:33;100360.16;;;7.09;100.00
12349;BME280;5974;42.710;27.258;2023-03-04T00:56:00;100358.25;;;7.53;100.00
12349;BME280;5974;42.710;27.258;2023-03-04T00:58:27;100346.69;;;7.98;100.00
12349;BME280;5974;42.710;27.258;2023-03-04T01:00:54;100332.25;;;7.87;100.00
12349;BME280;5974;42.710;27.258;2023-03-04T01:03:20;100325.84;;;7.98;100.00
12349;BME280;5974;42.710;27.258;2023-03-04T01:05:48;100312.66;;;8.04;100.00
12349;BME280;5974;42.710;27.258;2023-03-04T01:08:17;100303.22;;;8.00;100.00
12349;BME280;5974;42.710;27.258;2023-03-04T01:10:43;100294.25;;;7.80;100.00
12349;BME280;5974;42.710;27.258;2023-03-04T01:13:10;100305.28;;;7.89;100.00
12349;BME280;5974;42.710;27.258;2023-03-04T01:15:37;100304.41;;;7.89;100.00
12349;BME280;5974;42.710;27.258;2023-03-04T01:18:04;100309.59;;;7.90;100.00
12349;BME280;5974;42.710;27.258;2023-03-04T01:20:31;100301.81;;;7.56;100.00
12349;BME280;5974;42.710;27.258;2023-03-04T01:22:57;100308.50;;;6.94;100.00
12349;BME280;5974;42.710;27.258;2023-03-04T01:25:26;100320.00;;;6.44;100.00
12349;BME280;5974;42.710;27.258;2023-03-04T01:27:52;100324.66;;;6.70;100.00
12349;BME280;5974;42.710;27.258;2023-03-04T01:30:19;100322.25;;;6.99;100.00
12349;BME280;5974;42.710;27.258;2023-03-04T01:32:46;100329.00;;;7.43;100.00
12349;BME280;5974;42.710;27.258;2023-03-04T01:35:13;100311.75;;;7.41;100.00
12349;BME280;5974;42.710;27.258;2023-03-04T01:37:40;100307.75;;;6.51;100.00
12349;BME280;5974;42.710;27.258;2023-03-04T01:40:08;100333.34;;;6.25;100.00
12349;BME280;5974;42.710;27.258;2023-03-04T01:42:37;100333.03;;;5.97;100.00
12349;BME280;5974;42.710;27.258;2023-03-04T01:45:06;100337.28;;;6.01;100.00
12349;BME280;5974;42.710;27.258;2023-03-04T01:47:33;100354.00;;;6.74;100.00
12349;BME280;5974;42.710;27.258;2023-03-04T01:50:05;100349.41;;;7.25;100.00
12349;BME280;5974;42.710;27.258;2023-03-04T01:52:32;100338.06;;;7.62;100.00
12349;BME280;5974;42.710;27.258;2023-03-04T01:54:59;100324.13;;;7.65;100.00
12349;BME280;5974;42.710;27.258;2023-03-04T01:57:26;100319.03;;;7.60;100.00
12349;BME280;5974;42.710;27.258;2023-03-04T02:00:29;100316.72;;;7.48;100.00
12349;BME280;5974;42.710;27.258;2023-03-04T02:02:59;100321.91;;;7.50;100.00
12349;BME280;5974;42.710;27.258;2023-03-04T02:05:28;100318.31;;;7.54;100.00
12349;BME280;5974;42.710;27.258;2023-03-04T02:07:56;100330.94;;;7.69;100.00
12349;BME280;5974;42.710;27.258;2023-03-04T02:10:24;100325.63;;;7.03;100.00
12349;BME280;5974;42.710;27.258;2023-03-04T02:12:51;100343.16;;;6.53;100.00
12349;BME280;5974;42.710;27.258;2023-03-04T02:15:18;100346.88;;;6.42;100.00
12349;BME280;5974;42.710;27.258;2023-03-04T02:17:47;100338.19;;;5.98;100.00
12349;BME280;5974;42.710;27.258;2023-03-04T02:20:24;100355.91;;;6.24;100.00
12349;BME280;5974;42.710;27.258;2023-03-04T02:23:02;100341.19;;;6.22;100.00
12349;BME280;5974;42.710;27.258;2023-03-04T02:25:36;100362.91;;;7.02;100.00
12349;BME280;5974;42.710;27.258;2023-03-04T02:28:06;100362.06;;;7.38;100.00
12349;BME280;5974;42.710;27.258;2023-03-04T02:30:33;100362.47;;;7.57;100.00
12349;BME280;5974;42.710;27.258;2023-03-04T02:33:00;100356.16;;;7.67;100.00
12349;BME280;5974;42.710;27.258;2023-03-04T02:35:27;100348.72;;;7.53;100.00
12349;BME280;5974;42.710;27.258;2023-03-04T02:37:54;100348.97;;;7.43;100.00
12349;BME280;5974;42.710;27.258;2023-03-04T02:40:24;100342.31;;;7.30;100.00
12349;BME280;5974;42.710;27.258;2023-03-04T02:42:53;100345.63;;;6.99;100.00
12349;BME280;5974;42.710;27.258;2023-03-04T02:45:30;100345.44;;;6.70;100.00
12349;BME280;5974;42.710;27.258;2023-03-04T02:48:00;100356.50;;;6.78;100.00
12349;BME280;5974;42.710;27.258;2023-03-04T02:50:28;100344.50;;;7.11;100.00
12349;BME280;5974;42.710;27.258;2023-03-04T02:52:56;100356.97;;;6.57;100.00
12349;BME280;5974;42.710;27.258;2023-03-04T02:55:23;100356.94;;;6.14;100.00
12349;BME280;5974;42.710;27.258;2023-03-04T02:57:50;100379.81;;;6.83;100.00
12349;BME280;5974;42.710;27.258;2023-03-04T03:00:17;100372.03;;;6.81;100.00
12349;BME280;5974;42.710;27.258;2023-03-04T03:02:46;100383.50;;;6.71;100.00
12349;BME280;5974;42.710;27.258;2023-03-04T03:05:13;100385.78;;;6.45;100.00
12349;BME280;5974;42.710;27.258;2023-03-04T03:07:40;100378.16;;;6.77;100.00
12349;BME280;5974;42.710;27.258;2023-03-04T03:10:07;100388.34;;;6.88;100.00
12349;BME280;5974;42.710;27.258;2023-03-04T03:12:34;100382.69;;;6.68;100.00
12349;BME280;5974;42.710;27.258;2023-03-04T03:15:01;100386.44;;;6.54;100.00
12349;BME280;5974;42.710;27.258;2023-03-04T03:17:28;100383.00;;;6.54;100.00
12349;BME280;5974;42.710;27.258;2023-03-04T03:19:56;100388.75;;;6.68;100.00
12349;BME280;5974;42.710;27.258;2023-03-04T03:22:23;100396.34;;;6.77;100.00
12349;BME280;5974;42.710;27.258;2023-03-04T03:24:50;100394.47;;;6.85;100.00
12349;BME280;5974;42.710;27.258;2023-03-04T03:27:17;100389.81;;;6.99;100.00
12349;BME280;5974;42.710;27.258;2023-03-04T03:29:44;100388.34;;;7.26;100.00
12349;BME280;5974;42.710;27.258;2023-03-04T03:32:10;100383.78;;;7.73;100.00
12349;BME280;5974;42.710;27.258;2023-03-04T03:34:38;100371.63;;;7.73;100.00
12349;BME280;5974;42.710;27.258;2023-03-04T03:37:06;100364.03;;;7.64;100.00
12349;BME280;5974;42.710;27.258;2023-03-04T03:39:33;100345.69;;;7.70;100.00
12349;BME280;5974;42.710;27.258;2023-03-04T03:41:59;100350.41;;;7.88;100.00
12349;BME280;5974;42.710;27.258;2023-03-04T03:44:26;100346.88;;;7.91;100.00
12349;BME280;5974;42.710;27.258;2023-03-04T03:46:53;100340.06;;;7.87;100.00
12349;BME280;5974;42.710;27.258;2023-03-04T03:49:20;100345.34;;;7.84;100.00
12349;BME280;5974;42.710;27.258;2023-03-04T03:51:47;100336.97;;;8.03;100.00
12349;BME280;5974;42.710;27.258;2023-03-04T03:54:15;100328.22;;;8.07;100.00
12349;BME280;5974;42.710;27.258;2023-03-04T03:56:42;100329.31;;;7.99;100.00
12349;BME280;5974;42.710;27.258;2023-03-04T03:59:08;100322.47;;;7.95;100.00
12349;BME280;5974;42.710;27.258;2023-03-04T04:01:35;100315.19;;;7.75;100.00
12349;BME280;5974;42.710;27.258;2023-03-04T04:04:02;100322.00;;;7.47;100.00
12349;BME280;5974;42.710;27.258;2023-03-04T04:06:29;100327.84;;;6.83;100.00
12349;BME280;5974;42.710;27.258;2023-03-04T04:08:56;100347.56;;;6.50;100.00
12349;BME280;5974;42.710;27.258;2023-03-04T04:11:24;100348.47;;;6.49;100.00
12349;BME280;5974;42.710;27.258;2023-03-04T04:13:52;100363.22;;;6.88;100.00
12349;BME280;5974;42.710;27.258;2023-03-04T04:16:19;100368.94;;;7.04;100.00
12349;BME280;5974;42.710;27.258;2023-03-04T04:18:46;100369.56;;;6.75;100.00
12349;BME280;5974;42.710;27.258;2023-03-04T04:21:13;100383.03;;;6.92;100.00
12349;BME280;5974;42.710;27.258;2023-03-04T04:23:40;100376.59;;;7.10;100.00
12349;BME280;5974;42.710;27.258;2023-03-04T04:26:07;100382.63;;;7.12;100.00
12349;BME280;5974;42.710;27.258;2023-03-04T04:28:35;100379.34;;;7.04;100.00
12349;BME280;5974;42.710;27.258;2023-03-04T04:31:06;100387.31;;;7.35;100.00
12349;BME280;5974;42.710;27.258;2023-03-04T04:33:33;100381.88;;;7.05;100.00
12349;BME280;5974;42.710;27.258;2023-03-04T04:35:59;100386.00;;;7.16;100.00
12349;BME280;5974;42.710;27.258;2023-03-04T04:38:28;100380.00;;;6.29;100.00
12349;BME280;5974;42.710;27.258;2023-03-04T04:40:56;100387.00;;;6.27;100.00
12349;BME280;5974;42.710;27.258;2023-03-04T04:43:23;100394.38;;;6.03;100.00
12349;BME280;5974;42.710;27.258;2023-03-04T04:45:52;100403.28;;;5.86;100.00
12349;BME280;5974;42.710;27.258;2023-03-04T04:48:19;100411.69;;;6.00;100.00
12349;BME280;5974;42.710;27.258;2023-03-04T04:50:46;100398.84;;;5.93;100.00
12349;BME280;5974;42.710;27.258;2023-03-04T04:53:12;100405.28;;;6.20;100.00
12349;BME280;5974;42.710;27.258;2023-03-04T04:55:39;100407.06;;;6.18;100.00
12349;BME280;5974;42.710;27.258;2023-03-04T04:58:06;100397.94;;;5.95;100.00
12349;BME280;5974;42.710;27.258;2023-03-04T05:00:33;100411.00;;;6.38;100.00
12349;BME280;5974;42.710;27.258;2023-03-04T05:03:01;100402.69;;;6.20;100.00
12349;BME280;5974;42.710;27.258;2023-03-04T05:05:28;100405.94;;;6.31;100.00
12349;BME280;5974;42.710;27.258;2023-03-04T05:07:55;100403.34;;;6.74;100.00
12349;BME280;5974;42.710;27.258;2023-03-04T05:10:22;100398.78;;;6.43;100.00
12349;BME280;5974;42.710;27.258;2023-03-04T05:12:49;100399.41;;;6.10;100.00
12349;BME280;5974;42.710;27.258;2023-03-04T05:15:16;100406.19;;;6.17;100.00
12349;BME280;5974;42.710;27.258;2023-03-04T05:17:43;100406.16;;;6.19;100.00
12349;BME280;5974;42.710;27.258;2023-03-04T05:20:12;100396.00;;;6.08;100.00
12349;BME280;5974;42.710;27.258;2023-03-04T05:22:39;100408.09;;;6.55;100.00
12349;BME280;5974;42.710;27.258;2023-03-04T05:25:06;100409.91;;;6.50;100.00
12349;BME280;5974;42.710;27.258;2023-03-04T05:27:33;100411.56;;;6.54;100.00
12349;BME280;5974;42.710;27.258;2023-03-04T05:29:59;100411.31;;;6.66;100.00
12349;BME280;5974;42.710;27.258;2023-03-04T05:32:27;100409.72;;;6.59;100.00
12349;BME280;5974;42.710;27.258;2023-03-04T05:34:53;100403.69;;;6.98;100.00
12349;BME280;5974;42.710;27.258;2023-03-04T05:37:22;100413.69;;;7.18;100.00
12349;BME280;5974;42.710;27.258;2023-03-04T05:39:48;100381.09;;;7.40;100.00
12349;BME280;5974;42.710;27.258;2023-03-04T05:42:15;100393.31;;;7.37;100.00
12349;BME280;5974;42.710;27.258;2023-03-04T05:44:42;100394.94;;;7.04;100.00
12349;BME280;5974;42.710;27.258;2023-03-04T05:47:09;100397.28;;;7.16;100.00
12349;BME280;5974;42.710;27.258;2023-03-04T05:49:36;100395.19;;;7.32;100.00
12349;BME280;5974;42.710;27.258;2023-03-04T05:52:03;100395.03;;;7.38;100.00
12349;BME280;5974;42.710;27.258;2023-03-04T05:54:31;100404.41;;;7.80;100.00
12349;BME280;5974;42.710;27.258;2023-03-04T05:56:58;100392.63;;;7.66;100.00
12349;BME280;5974;42.710;27.258;2023-03-04T05:59:25;100393.84;;;7.86;100.00
12349;BME280;5974;42.710;27.258;2023-03-04T06:01:51;100391.94;;;7.93;100.00
12349;BME280;5974;42.710;27.258;2023-03-04T06:04:18;100380.53;;;8.32;100.00
12349;BME280;5974;42.710;27.258;2023-03-04T06:06:45;100366.13;;;8.50;100.00
12349;BME280;5974;42.710;27.258;2023-03-04T06:09:12;100367.97;;;8.12;100.00
12349;BME280;5974;42.710;27.258;2023-03-04T06:11:40;100372.16;;;8.81;100.00
12349;BME280;5974;42.710;27.258;2023-03-04T06:14:07;100353.34;;;9.55;100.00
12349;BME280;5974;42.710;27.258;2023-03-04T06:16:34;100343.03;;;9.24;100.00
12349;BME280;5974;42.710;27.258;2023-03-04T06:19:01;100339.84;;;9.42;100.00
12349;BME280;5974;42.710;27.258;2023-03-04T06:21:28;100333.84;;;9.12;100.00
12349;BME280;5974;42.710;27.258;2023-03-04T06:23:55;100331.75;;;8.96;100.00
12349;BME280;5974;42.710;27.258;2023-03-04T06:26:21;100342.03;;;9.28;100.00
12349;BME280;5974;42.710;27.258;2023-03-04T06:28:50;100337.84;;;10.51;100.00
12349;BME280;5974;42.710;27.258;2023-03-04T06:31:21;100329.91;;;10.52;100.00
12349;BME280;5974;42.710;27.258;2023-03-04T06:33:48;100319.63;;;10.24;100.00
12349;BME280;5974;42.710;27.258;2023-03-04T06:36:15;100321.72;;;9.64;100.00
12349;BME280;5974;42.710;27.258;2023-03-04T06:38:41;100327.66;;;8.87;100.00
12349;BME280;5974;42.710;27.258;2023-03-04T06:41:10;100334.50;;;9.19;100.00
12349;BME280;5974;42.710;27.258;2023-03-04T06:43:37;100345.09;;;9.67;100.00
12349;BME280;5974;42.710;27.258;2023-03-04T06:46:06;100339.69;;;10.24;100.00
12349;BME280;5974;42.710;27.258;2023-03-04T06:48:33;100336.03;;;10.28;100.00
12349;BME280;5974;42.710;27.258;2023-03-04T06:51:04;100335.94;;;10.31;100.00
12349;BME280;5974;42.710;27.258;2023-03-04T06:53:31;100343.75;;;10.79;100.00
12349;BME280;5974;42.710;27.258;2023-03-04T06:55:58;100335.16;;;10.29;100.00
12349;BME280;5974;42.710;27.258;2023-03-04T06:58:24;100336.25;;;11.15;100.00
12349;BME280;5974;42.710;27.258;2023-03-04T07:00:51;100330.03;;;10.72;100.00
12349;BME280;5974;42.710;27.258;2023-03-04T07:03:20;100332.56;;;10.97;100.00
12349;BME280;5974;42.710;27.258;2023-03-04T07:05:47;100328.94;;;11.01;100.00
12349;BME280;5974;42.710;27.258;2023-03-04T07:08:14;100332.09;;;11.31;100.00
12349;BME280;5974;42.710;27.258;2023-03-04T07:10:41;100328.81;;;11.04;100.00
12349;BME280;5974;42.710;27.258;2023-03-04T07:13:08;100321.69;;;11.08;100.00
12349;BME280;5974;42.710;27.258;2023-03-04T07:15:36;100304.44;;;10.80;100.00
12349;BME280;5974;42.710;27.258;2023-03-04T07:18:03;100318.28;;;10.38;100.00
12349;BME280;5974;42.710;27.258;2023-03-04T07:20:31;100319.03;;;10.41;100.00
12349;BME280;5974;42.710;27.258;2023-03-04T07:22:58;100313.56;;;10.24;100.00
12349;BME280;5974;42.710;27.258;2023-03-04T07:25:25;100312.06;;;10.17;100.00
12349;BME280;5974;42.710;27.258;2023-03-04T07:27:52;100314.91;;;10.09;100.00
12349;BME280;5974;42.710;27.258;2023-03-04T07:30:19;100304.16;;;10.18;100.00
12349;BME280;5974;42.710;27.258;2023-03-04T07:32:46;100301.53;;;10.66;100.00
12349;BME280;5974;42.710;27.258;2023-03-04T07:35:13;100299.38;;;10.54;100.00
12349;BME280;5974;42.710;27.258;2023-03-04T07:37:41;100294.69;;;10.62;100.00
12349;BME280;5974;42.710;27.258;2023-03-04T07:40:09;100282.63;;;10.58;100.00
12349;BME280;5974;42.710;27.258;2023-03-04T07:42:36;100283.28;;;11.30;100.00
12349;BME280;5974;42.710;27.258;2023-03-04T07:45:04;100281.06;;;11.63;100.00
12349;BME280;5974;42.710;27.258;2023-03-04T07:47:32;100278.56;;;12.39;100.00
12349;BME280;5974;42.710;27.258;2023-03-04T07:49:59;100270.91;;;12.34;100.00
12349;BME280;5974;42.710;27.258;2023-03-04T07:52:26;100292.13;;;11.48;100.00
12349;BME280;5974;42.710;27.258;2023-03-04T07:54:54;100288.38;;;12.15;100.00
12349;BME280;5974;42.710;27.258;2023-03-04T07:57:21;100265.38;;;12.59;100.00
12349;BME280;5974;42.710;27.258;2023-03-04T07:59:47;100288.56;;;12.68;100.00
12349;BME280;5974;42.710;27.258;2023-03-04T08:02:14;100289.38;;;13.25;100.00
12349;BME280;5974;42.710;27.258;2023-03-04T08:04:41;100292.47;;;12.78;100.00
12349;BME280;5974;42.710;27.258;2023-03-04T08:07:08;100301.53;;;12.52;100.00
12349;BME280;5974;42.710;27.258;2023-03-04T08:09:35;100299.78;;;12.14;100.00
12349;BME280;5974;42.710;27.258;2023-03-04T08:12:03;100295.94;;;12.79;100.00
12349;BME280;5974;42.710;27.258;2023-03-04T08:14:30;100292.03;;;12.50;100.00
12349;BME280;5974;42.710;27.258;2023-03-04T08:16:58;100296.44;;;12.68;100.00
12349;BME280;5974;42.710;27.258;2023-03-04T08:19:25;100304.47;;;12.26;100.00
12349;BME280;5974;42.710;27.258;2023-03-04T08:21:52;100305.47;;;13.36;100.00
12349;BME280;5974;42.710;27.258;2023-03-04T08:24:18;100298.91;;;13.44;100.00
12349;BME280;5974;42.710;27.258;2023-03-04T08:26:48;100287.31;;;13.31;100.00
12349;BME280;5974;42.710;27.258;2023-03-04T08:29:19;100296.75;;;13.17;100.00
12349;BME280;5974;42.710;27.258;2023-03-04T08:31:46;100291.09;;;13.07;100.00
12349;BME280;5974;42.710;27.258;2023-03-04T08:34:13;100295.25;;;13.13;100.00
12349;BME280;5974;42.710;27.258;2023-03-04T08:36:42;100303.38;;;12.50;100.00
12349;BME280;5974;42.710;27.258;2023-03-04T08:39:11;100302.47;;;11.72;100.00
12349;BME280;5974;42.710;27.258;2023-03-04T08:41:40;100295.53;;;12.12;100.00
12349;BME280;5974;42.710;27.258;2023-03-04T08:44:07;100301.75;;;11.69;100.00
12349;BME280;5974;42.710;27.258;2023-03-04T08:46:37;100308.91;;;11.64;100.00
12349;BME280;5974;42.710;27.258;2023-03-04T08:49:04;100299.00;;;12.70;100.00
12349;BME280;5974;42.710;27.258;2023-03-04T08:51:31;100292.91;;;12.69;100.00
12349;BME280;5974;42.710;27.258;2023-03-04T08:54:00;100292.91;;;12.88;100.00
12349;BME280;5974;42.710;27.258;2023-03-04T08:56:27;100290.47;;;14.06;100.00
12349;BME280;5974;42.710;27.258;2023-03-04T08:58:53;100269.59;;;13.18;100.00
12349;BME280;5974;42.710;27.258;2023-03-04T09:01:20;100275.84;;;12.96;100.00
12349;BME280;5974;42.710;27.258;2023-03-04T09:03:48;100269.63;;;12.80;100.00
12349;BME280;5974;42.710;27.258;2023-03-04T09:06:16;100272.47;;;13.30;100.00
12349;BME280;5974;42.710;27.258;2023-03-04T09:08:43;100260.38;;;13.62;100.00
12349;BME280;5974;42.710;27.258;2023-03-04T09:11:11;100255.72;;;13.67;100.00
12349;BME280;5974;42.710;27.258;2023-03-04T09:13:38;100257.59;;;13.65;100.00
12349;BME280;5974;42.710;27.258;2023-03-04T09:16:09;100258.53;;;13.11;100.00
12349;BME280;5974;42.710;27.258;2023-03-04T09:18:36;100254.41;;;13.41;100.00
12349;BME280;5974;42.710;27.258;2023-03-04T09:21:06;100245.22;;;13.16;100.00
12349;BME280;5974;42.710;27.258;2023-03-04T09:23:33;100236.81;;;13.43;100.00
12349;BME280;5974;42.710;27.258;2023-03-04T09:26:00;100238.50;;;14.44;100.00
12349;BME280;5974;42.710;27.258;2023-03-04T09:28:27;100231.78;;;13.39;100.00
12349;BME280;5974;42.710;27.258;2023-03-04T09:30:53;100227.69;;;13.68;100.00
12349;BME280;5974;42.710;27.258;2023-03-04T09:33:20;100225.13;;;13.66;100.00
12349;BME280;5974;42.710;27.258;2023-03-04T09:35:47;100223.97;;;13.54;100.00
12349;BME280;5974;42.710;27.258;2023-03-04T09:38:16;100218.56;;;12.87;100.00
12349;BME280;5974;42.710;27.258;2023-03-04T09:40:45;100232.38;;;13.27;100.00
12349;BME280;5974;42.710;27.258;2023-03-04T09:43:17;100221.28;;;13.39;100.00
12349;BME280;5974;42.710;27.258;2023-03-04T09:45:48;100210.25;;;14.31;100.00
12349;BME280;5974;42.710;27.258;2023-03-04T09:48:20;100213.41;;;13.89;100.00
12349;BME280;5974;42.710;27.258;2023-03-04T09:50:58;100214.25;;;13.56;100.00
12349;BME280;5974;42.710;27.258;2023-03-04T09:53:34;100205.81;;;14.33;100.00
12349;BME280;5974;42.710;27.258;2023-03-04T09:56:05;100209.16;;;15.13;100.00
12349;BME280;5974;42.710;27.258;2023-03-04T09:58:41;100195.13;;;14.67;100.00
12349;BME280;5974;42.710;27.258;2023-03-04T10:01:21;100193.19;;;14.06;100.00
12349;BME280;5974;42.710;27.258;2023-03-04T10:03:54;100188.41;;;13.97;100.00
12349;BME280;5974;42.710;27.258;2023-03-04T10:06:24;100193.94;;;14.57;100.00
12349;BME280;5974;42.710;27.258;2023-03-04T10:08:55;100178.91;;;15.04;100.00
12349;BME280;5974;42.710;27.258;2023-03-04T10:11:27;100176.56;;;14.06;100.00
12349;BME280;5974;42.710;27.258;2023-03-04T10:14:03;100168.84;;;14.36;100.00
12349;BME280;5974;42.710;27.258;2023-03-04T10:16:40;100169.56;;;13.74;100.00
12349;BME280;5974;42.710;27.258;2023-03-04T10:19:28;100159.47;;;13.82;100.00
12349;BME280;5974;42.710;27.258;2023-03-04T10:21:57;100165.81;;;12.75;100.00
12349;BME280;5974;42.710;27.258;2023-03-04T10:24:28;100164.50;;;12.66;100.00
12349;BME280;5974;42.710;27.258;2023-03-04T10:27:00;100163.59;;;13.01;100.00
12349;BME280;5974;42.710;27.258;2023-03-04T10:29:30;100155.00;;;13.34;100.00
12349;BME280;5974;42.710;27.258;2023-03-04T10:31:58;100148.31;;;13.61;100.00
12349;BME280;5974;42.710;27.258;2023-03-04T10:34:25;100137.69;;;13.30;100.00
12349;BME280;5974;42.710;27.258;2023-03-04T10:36:57;100135.09;;;12.77;100.00
12349;BME280;5974;42.710;27.258;2023-03-04T10:39:29;100138.53;;;12.79;100.00
12349;BME280;5974;42.710;27.258;2023-03-04T10:41:59;100133.66;;;13.05;100.00
12349;BME280;5974;42.710;27.258;2023-03-04T10:44:27;100124.81;;;13.25;100.00
12349;BME280;5974;42.710;27.258;2023-03-04T10:46:56;100118.78;;;13.73;100.00
12349;BME280;5974;42.710;27.258;2023-03-04T10:49:25;100100.72;;;13.67;100.00
12349;BME280;5974;42.710;27.258;2023-03-04T10:51:54;100114.94;;;14.27;100.00
12349;BME280;5974;42.710;27.258;2023-03-04T10:54:29;100094.88;;;15.15;99.02
12349;BME280;5974;42.710;27.258;2023-03-04T10:56:59;100094.44;;;14.79;99.00
12349;BME280;5974;42.710;27.258;2023-03-04T10:59:39;100093.06;;;14.72;94.22
12349;BME280;5974;42.710;27.258;2023-03-04T11:02:19;100098.19;;;14.59;94.47
12349;BME280;5974;42.710;27.258;2023-03-04T11:04:56;100091.94;;;14.46;91.38
12349;BME280;5974;42.710;27.258;2023-03-04T11:07:30;100086.78;;;14.45;91.72
12349;BME280;5974;42.710;27.258;2023-03-04T11:10:09;100076.75;;;14.20;88.14
12349;BME280;5974;42.710;27.258;2023-03-04T11:12:39;100071.16;;;14.72;89.89
12349;BME280;5974;42.710;27.258;2023-03-04T11:15:16;100068.19;;;14.78;91.32
12349;BME280;5974;42.710;27.258;2023-03-04T11:17:47;100071.50;;;14.36;92.39
12349;BME280;5974;42.710;27.258;2023-03-04T11:20:19;100075.63;;;14.55;93.31
12349;BME280;5974;42.710;27.258;2023-03-04T11:22:51;100066.53;;;14.91;91.70
12349;BME280;5974;42.710;27.258;2023-03-04T11:25:25;100070.88;;;15.06;90.78
12349;BME280;5974;42.710;27.258;2023-03-04T11:27:54;100056.06;;;15.47;91.53
12349;BME280;5974;42.710;27.258;2023-03-04T11:30:31;100049.22;;;14.87;89.51
12349;BME280;5974;42.710;27.258;2023-03-04T11:33:10;100055.56;;;14.69;91.17
12349;BME280;5974;42.710;27.258;2023-03-04T11:35:44;100057.41;;;14.82;89.14
12349;BME280;5974;42.710;27.258;2023-03-04T11:38:17;100046.28;;;15.63;87.59
12349;BME280;5974;42.710;27.258;2023-03-04T11:40:49;100067.50;;;14.29;88.69
12349;BME280;5974;42.710;27.258;2023-03-04T11:43:21;100062.38;;;14.57;89.00
12349;BME280;5974;42.710;27.258;2023-03-04T11:46:09;100058.41;;;15.80;87.30
12349;BME280;5974;42.710;27.258;2023-03-04T11:48:50;100049.69;;;14.79;87.84
12349;BME280;5974;42.710;27.258;2023-03-04T11:51:22;100054.56;;;15.57;87.36
12349;BME280;5974;42.710;27.258;2023-03-04T11:54:07;100054.59;;;15.98;84.26
12349;BME280;5974;42.710;27.258;2023-03-04T11:56:42;100051.03;;;14.71;86.57
12349;BME280;5974;42.710;27.258;2023-03-04T11:59:39;100055.56;;;14.39;87.93
12349;BME280;5974;42.710;27.258;2023-03-04T12:02:13;100057.19;;;14.55;90.47
12349;BME280;5974;42.710;27.258;2023-03-04T12:05:03;100028.38;;;14.23;91.30
12349;BME280;5974;42.710;27.258;2023-03-04T12:10:46;100038.94;;;15.40;84.94
12349;BME280;5974;42.710;27.258;2023-03-04T12:13:34;100039.53;;;14.87;87.00
12349;BME280;5974;42.710;27.258;2023-03-04T12:16:16;100029.72;;;15.47;83.71
12349;BME280;5974;42.710;27.258;2023-03-04T12:19:02;100032.59;;;15.00;85.40
12349;BME280;5974;42.710;27.258;2023-03-04T12:21:58;100029.09;;;15.85;84.25
12349;BME280;5974;42.710;27.258;2023-03-04T12:24:39;100035.53;;;14.05;89.19
12349;BME280;5974;42.710;27.258;2023-03-04T12:27:19;100031.72;;;13.95;90.64
12349;BME280;5974;42.710;27.258;2023-03-04T12:29:54;100028.16;;;13.65;89.92
12349;BME280;5974;42.710;27.258;2023-03-04T12:32:28;100029.97;;;14.56;90.17
12349;BME280;5974;42.710;27.258;2023-03-04T12:38:12;100026.28;;;13.67;93.38
12349;BME280;5974;42.710;27.258;2023-03-04T12:40:49;100004.38;;;14.44;89.52
12349;BME280;5974;42.710;27.258;2023-03-04T12:43:30;100010.38;;;14.31;86.72
12349;BME280;5974;42.710;27.258;2023-03-04T12:46:06;100019.25;;;14.14;85.93
12349;BME280;5974;42.710;27.258;2023-03-04T12:48:40;100016.59;;;14.30;87.61
12349;BME280;5974;42.710;27.258;2023-03-04T12:51:16;100010.06;;;14.37;89.09
12349;BME280;5974;42.710;27.258;2023-03-04T12:53:55;100012.63;;;14.07;87.97
12349;BME280;5974;42.710;27.258;2023-03-04T12:56:32;100008.81;;;14.12;89.40
12349;BME280;5974;42.710;27.258;2023-03-04T12:59:02;99998.94;;;14.47;88.06
12349;BME280;5974;42.710;27.258;2023-03-04T13:01:37;99988.75;;;14.26;87.77
12349;BME280;5974;42.710;27.258;2023-03-04T13:04:08;99992.88;;;14.75;87.65
12349;BME280;5974;42.710;27.258;2023-03-04T13:06:41;99991.97;;;15.18;84.17